Terminal Aerodrome Forecast
Issued by NWS Tampa Bay Area, FL

Home | Current Version | Previous Version | Text Only | Print | Product List | Glossary On
Versions: 1 2 3 4 5 6 7 8 9 10 11 12 13 14 15 16 17 18 19 20 21 22 23 24 25
000
FTUS42 KTBW 240200 AAA
TAFTPA
TAF AMD
KTPA 240259Z 2403/2424 VRB03KT P6SM BKN250
     FM240600 23003KT P6SM SCT250
     FM241500 24005KT P6SM FEW050 SCT250
     FM241800 25007KT P6SM VCTS BKN040CB BKN250=

USA.gov is the U.S. government's official web portal to all federal, state and local government web resources and services.